createdAt,value
2022-10-11T00:01:00.414Z,11.20
2022-10-11T00:04:02.355Z,11.13
2022-10-11T00:07:04.450Z,15.60
2022-10-11T00:10:07.648Z,28.38
2022-10-11T00:13:09.556Z,30.13
2022-10-11T00:16:12.855Z,21.65
2022-10-11T00:22:16.703Z,17.05
2022-10-11T00:25:19.316Z,14.15
2022-10-11T00:28:21.214Z,18.75
2022-10-11T00:31:23.601Z,23.35
2022-10-11T00:34:25.474Z,16.03
2022-10-11T00:37:27.455Z,12.60
2022-10-11T00:40:29.313Z,12.27
2022-10-11T00:43:31.960Z,7.63
2022-10-11T00:46:33.944Z,6.63
2022-10-11T00:49:49.207Z,7.70
2022-10-11T00:52:56.301Z,6.25
2022-10-11T00:56:07.343Z,6.05
2022-10-11T00:59:14.536Z,7.03
2022-10-11T01:02:17.616Z,7.78
2022-10-11T01:05:32.453Z,5.40
2022-10-11T01:08:34.760Z,8.18
2022-10-11T01:11:39.305Z,9.50
2022-10-11T01:14:55.901Z,10.57
2022-10-11T01:18:07.454Z,14.15
2022-10-11T01:21:26.577Z,8.90
2022-10-11T01:24:52.501Z,6.25
2022-10-11T01:28:04.269Z,15.05
2022-10-11T01:31:20.575Z,17.08
2022-10-11T01:34:30.878Z,11.05
2022-10-11T01:37:40.729Z,8.38
2022-10-11T01:40:49.121Z,9.18
2022-10-11T01:43:57.678Z,6.72
2022-10-11T01:46:59.539Z,9.57
2022-10-11T01:50:02.537Z,6.28
2022-10-11T01:53:16.148Z,6.18
2022-10-11T01:59:31.794Z,5.40
2022-10-11T02:02:54.958Z,6.90
2022-10-11T02:06:16.384Z,6.32
2022-10-11T02:09:31.562Z,7.65
2022-10-11T02:12:40.561Z,10.80
2022-10-11T02:15:45.368Z,9.63
2022-10-11T02:18:51.118Z,9.82
2022-10-11T02:21:57.974Z,9.82
2022-10-11T02:25:02.976Z,10.77
2022-10-11T02:28:14.191Z,11.98
2022-10-11T02:31:17.722Z,14.15
2022-10-11T02:34:33.665Z,10.27
2022-10-11T02:38:00.563Z,8.07
2022-10-11T02:41:13.131Z,10.85
2022-10-11T02:44:23.831Z,9.20
2022-10-11T02:47:30.509Z,8.38
2022-10-11T02:50:32.394Z,9.10
2022-10-11T02:53:34.358Z,7.35
2022-10-11T02:56:36.234Z,10.93
2022-10-11T02:59:38.081Z,7.43
2022-10-11T03:02:39.934Z,9.43
2022-10-11T03:05:42.025Z,10.05
2022-10-11T03:08:44.944Z,7.90
2022-10-11T03:11:46.788Z,13.02
2022-10-11T03:14:48.667Z,8.63
2022-10-11T03:17:50.495Z,8.20
2022-10-11T03:20:52.530Z,7.60
2022-10-11T03:23:54.387Z,6.13
2022-10-11T03:26:56.256Z,7.13
2022-10-11T03:29:58.149Z,9.27
2022-10-11T03:33:00.029Z,8.70
2022-10-11T03:36:03.152Z,5.38
2022-10-11T03:39:05.692Z,8.35
2022-10-11T03:42:07.562Z,7.40
2022-10-11T03:45:10.059Z,8.82
2022-10-11T03:48:12.409Z,7.65
2022-10-11T03:51:15.263Z,9.30
2022-10-11T03:54:17.115Z,6.57
2022-10-11T03:57:19.424Z,7.78
2022-10-11T04:00:21.334Z,16.63
2022-10-11T04:03:23.259Z,8.60
2022-10-11T04:06:25.333Z,8.13
2022-10-11T04:09:27.747Z,15.88
2022-10-11T04:12:29.617Z,7.17
2022-10-11T04:15:31.842Z,7.47
2022-10-11T04:18:33.678Z,12.55
2022-10-11T04:21:35.577Z,7.43
2022-10-11T04:24:37.583Z,7.00
2022-10-11T04:27:39.654Z,8.68
2022-10-11T04:30:41.489Z,7.65
2022-10-11T04:33:43.485Z,6.03
2022-10-11T04:36:49.587Z,14.95
2022-10-11T04:39:51.875Z,7.95
2022-10-11T04:42:53.859Z,9.65
2022-10-11T04:45:55.947Z,14.90
2022-10-11T04:48:57.998Z,14.68
2022-10-11T04:51:59.863Z,12.63
2022-10-11T04:55:01.838Z,12.05
2022-10-11T04:58:03.720Z,12.18
2022-10-11T05:01:05.609Z,25.30
2022-10-11T05:04:07.607Z,40.05
2022-10-11T05:07:09.509Z,36.50
2022-10-11T05:10:11.476Z,49.65
2022-10-11T05:13:13.358Z,36.88
2022-10-11T05:16:16.044Z,31.35
2022-10-11T05:22:20.210Z,27.73
2022-10-11T05:25:24.600Z,38.97
2022-10-11T05:28:27.533Z,34.67
2022-10-11T05:31:29.471Z,23.58
2022-10-11T05:34:31.522Z,12.25
2022-10-11T05:37:33.372Z,10.15
2022-10-11T05:40:36.578Z,18.83
2022-10-11T05:43:38.508Z,30.83
2022-10-11T05:46:40.430Z,25.42
2022-10-11T05:49:42.258Z,22.70
2022-10-11T05:52:44.133Z,22.00
2022-10-11T05:55:46.176Z,27.42
2022-10-11T05:58:48.553Z,19.17
2022-10-11T06:01:51.407Z,14.97
2022-10-11T06:04:53.491Z,9.85
2022-10-11T06:07:55.402Z,12.43
2022-10-11T06:10:57.344Z,17.33
2022-10-11T06:13:59.235Z,19.73
2022-10-11T06:17:01.138Z,16.73
2022-10-11T06:20:03.942Z,18.63
2022-10-11T06:23:05.811Z,18.10
2022-10-11T06:26:09.334Z,20.02
2022-10-11T06:29:11.706Z,12.75
2022-10-11T06:32:13.667Z,13.75
2022-10-11T06:35:15.540Z,11.63
2022-10-11T06:38:17.460Z,16.63
2022-10-11T06:41:28.661Z,16.42
2022-10-11T06:44:30.627Z,16.05
2022-10-11T06:47:32.555Z,6.85
2022-10-11T06:50:57.865Z,4.63
2022-10-11T06:53:59.834Z,8.07
2022-10-11T06:57:01.742Z,20.70
2022-10-11T07:00:07.970Z,8.93
2022-10-11T07:03:13.646Z,10.18
2022-10-11T07:06:23.639Z,5.97
2022-10-11T07:09:25.563Z,4.22
2022-10-11T07:12:28.897Z,6.28
2022-10-11T07:18:32.795Z,4.18
2022-10-11T07:21:35.574Z,3.35
2022-10-11T07:24:37.471Z,5.13
2022-10-11T07:27:39.369Z,4.35
2022-10-11T07:30:42.406Z,4.00
2022-10-11T07:33:44.562Z,5.80
2022-10-11T07:36:47.165Z,8.68
2022-10-11T07:39:49.720Z,6.97
2022-10-11T07:42:51.610Z,7.23
2022-10-11T07:45:55.648Z,8.43
2022-10-11T07:48:57.566Z,8.75
2022-10-11T07:51:59.415Z,6.20
2022-10-11T07:55:01.265Z,5.43
2022-10-11T07:58:03.107Z,1.67
2022-10-11T08:01:05.827Z,0.90
2022-10-11T08:04:07.857Z,1.25
2022-10-11T08:07:09.730Z,2.03
2022-10-11T08:10:11.640Z,1.83
2022-10-11T08:13:14.492Z,1.60
2022-10-11T08:16:16.912Z,1.70
2022-10-11T08:19:18.984Z,0.90
2022-10-11T08:22:20.812Z,1.80
2022-10-11T08:25:22.797Z,1.35
2022-10-11T08:28:24.769Z,1.15
2022-10-11T08:31:26.712Z,2.53
2022-10-11T08:34:28.683Z,5.40
2022-10-11T08:37:30.623Z,2.83
2022-10-11T08:40:35.320Z,2.10
2022-10-11T08:43:53.120Z,1.88
2022-10-11T08:47:03.102Z,1.25
2022-10-11T08:50:07.695Z,3.72
2022-10-11T08:53:22.371Z,1.55
2022-10-11T08:56:26.606Z,2.97
2022-10-11T08:59:36.475Z,2.33
2022-10-11T09:03:07.379Z,1.08
2022-10-11T09:06:23.955Z,2.17
2022-10-11T09:09:54.451Z,2.28
2022-10-11T09:13:31.149Z,2.33
2022-10-11T09:16:45.708Z,1.77
2022-10-11T09:20:17.645Z,2.92
2022-10-11T09:23:52.853Z,2.53
2022-10-11T09:27:01.495Z,3.90
2022-10-11T09:30:11.658Z,2.88
2022-10-11T09:33:27.496Z,4.47
2022-10-11T09:36:50.668Z,4.47
2022-10-11T09:40:30.832Z,9.38
2022-10-11T09:43:32.819Z,5.22
2022-10-11T09:46:36.478Z,2.55
2022-10-11T09:49:42.775Z,9.38
2022-10-11T09:52:56.358Z,3.42
2022-10-11T09:59:25.154Z,4.45
2022-10-11T10:02:31.065Z,2.00
2022-10-11T10:05:36.906Z,2.05
2022-10-11T10:08:38.883Z,1.55
2022-10-11T10:11:40.801Z,2.70
2022-10-11T10:14:42.662Z,2.72
2022-10-11T10:17:52.979Z,2.05
2022-10-11T10:20:59.484Z,1.65
2022-10-11T10:24:05.302Z,1.73
2022-10-11T10:27:07.156Z,3.55
2022-10-11T10:30:08.953Z,1.60
2022-10-11T10:33:12.082Z,2.00
2022-10-11T10:36:18.803Z,1.85
2022-10-11T10:39:34.896Z,5.65
2022-10-11T10:42:37.673Z,1.90
2022-10-11T10:46:08.300Z,1.52
2022-10-11T10:53:21.390Z,1.70
2022-10-11T10:56:37.478Z,3.03
2022-10-11T10:59:50.161Z,1.65
2022-10-11T11:03:03.137Z,4.07
2022-10-11T11:06:06.999Z,2.72
2022-10-11T11:09:21.132Z,1.45
2022-10-11T11:12:56.444Z,2.72
2022-10-11T11:16:07.650Z,1.70
2022-10-11T11:19:20.506Z,0.95
2022-10-11T11:22:53.004Z,1.37
2022-10-11T11:26:31.618Z,3.15
2022-10-11T11:29:55.854Z,4.25
2022-10-11T11:33:07.391Z,2.70
2022-10-11T11:36:17.939Z,1.08
2022-10-11T11:39:30.044Z,2.95
2022-10-11T11:42:41.857Z,3.75
2022-10-11T11:46:01.293Z,2.60
2022-10-11T11:49:15.599Z,1.85
2022-10-11T11:52:26.661Z,3.35
2022-10-11T11:55:54.572Z,4.32
2022-10-11T11:59:09.852Z,5.70
2022-10-11T12:02:43.240Z,9.63
2022-10-11T12:06:14.346Z,3.65
2022-10-11T12:09:19.085Z,2.80
2022-10-11T12:12:35.533Z,7.63
2022-10-11T12:15:38.831Z,4.18
2022-10-11T12:22:35.338Z,7.18
2022-10-11T12:25:41.749Z,5.78
2022-10-11T12:29:00.600Z,2.50
2022-10-11T12:32:02.883Z,4.57
2022-10-11T12:35:33.807Z,3.78
2022-10-11T12:38:40.227Z,2.63
2022-10-11T12:41:51.819Z,2.25
2022-10-11T12:45:24.167Z,3.80
2022-10-11T12:48:52.588Z,2.92
2022-10-11T12:51:54.466Z,1.48
2022-10-11T12:55:09.001Z,4.60
2022-10-11T12:58:41.857Z,4.18
2022-10-11T13:01:58.183Z,2.15
2022-10-11T13:05:16.864Z,3.22
2022-10-11T13:08:25.055Z,3.33
2022-10-11T13:11:57.261Z,4.82
2022-10-11T13:15:00.119Z,2.00
2022-10-11T13:18:02.856Z,3.63
2022-10-11T13:21:23.072Z,4.40
2022-10-11T13:24:28.625Z,3.42
2022-10-11T13:27:30.949Z,7.72
2022-10-11T13:30:35.967Z,1.45
2022-10-11T13:33:42.208Z,3.95
2022-10-11T13:36:44.171Z,5.35
2022-10-11T13:39:49.083Z,9.00
2022-10-11T13:42:53.728Z,5.25
2022-10-11T13:45:58.694Z,4.80
2022-10-11T13:49:24.220Z,5.00
2022-10-11T13:52:26.908Z,4.63
2022-10-11T13:55:49.896Z,5.85
2022-10-11T13:58:54.250Z,4.27
2022-10-11T14:02:01.885Z,4.88
2022-10-11T14:05:04.251Z,7.95
2022-10-11T14:08:29.268Z,4.03
2022-10-11T14:11:40.048Z,3.88
2022-10-11T14:14:43.017Z,6.60
2022-10-11T14:17:45.905Z,2.88
2022-10-11T14:20:47.803Z,5.40
2022-10-11T14:23:52.759Z,12.60
2022-10-11T14:26:56.412Z,6.90
2022-10-11T14:30:25.212Z,6.70
2022-10-11T14:33:20.867Z,9.10
2022-10-11T14:36:23.779Z,5.85
2022-10-11T14:39:28.071Z,5.85
2022-10-11T14:42:29.939Z,6.22
2022-10-11T14:45:31.887Z,10.55
2022-10-11T14:48:54.453Z,4.72
2022-10-11T14:51:59.011Z,6.80
2022-10-11T14:55:01.154Z,8.13
2022-10-11T14:58:03.642Z,12.15
2022-10-11T15:01:05.672Z,8.53
2022-10-11T15:04:09.280Z,10.40
2022-10-11T15:07:12.770Z,9.20
2022-10-11T15:10:17.603Z,6.88
2022-10-11T15:13:19.673Z,10.98
2022-10-11T15:16:22.434Z,10.70
2022-10-11T15:19:25.236Z,10.30
2022-10-11T15:22:27.369Z,9.70
2022-10-11T15:25:29.938Z,7.28
2022-10-11T15:28:33.344Z,8.53
2022-10-11T15:31:35.558Z,12.00
2022-10-11T15:34:37.479Z,16.38
2022-10-11T15:37:39.678Z,25.17
2022-10-11T15:40:41.617Z,23.70
2022-10-11T15:43:44.958Z,24.88
2022-10-11T15:49:48.815Z,19.50
2022-10-11T15:52:51.854Z,29.98
2022-10-11T15:55:56.658Z,35.75
2022-10-11T15:58:58.694Z,38.60
2022-10-11T16:02:00.559Z,22.67
2022-10-11T16:05:02.475Z,26.60
2022-10-11T16:08:04.564Z,16.30
2022-10-11T16:11:07.894Z,15.30
2022-10-11T16:14:11.848Z,14.18
2022-10-11T16:17:13.852Z,14.52
2022-10-11T16:20:18.588Z,14.27
2022-10-11T16:23:21.977Z,19.75
2022-10-11T16:29:25.748Z,30.48
2022-10-11T16:32:28.384Z,37.33
2022-10-11T16:35:32.520Z,22.70
2022-10-11T16:38:35.365Z,23.50
2022-10-11T16:41:37.532Z,28.37
2022-10-11T16:44:39.671Z,27.00
2022-10-11T16:47:42.660Z,20.65
2022-10-11T16:50:44.484Z,23.02
2022-10-11T16:53:46.352Z,19.88
2022-10-11T16:56:49.847Z,21.58
2022-10-11T16:59:51.793Z,25.92
2022-10-11T17:02:53.688Z,17.95
2022-10-11T17:05:55.626Z,18.35
2022-10-11T17:08:57.633Z,12.52
2022-10-11T17:11:59.534Z,21.65
2022-10-11T17:15:01.390Z,17.33
2022-10-11T17:18:03.959Z,20.02
2022-10-11T17:21:08.676Z,20.80
2022-10-11T17:24:10.545Z,14.23
2022-10-11T17:27:12.677Z,13.80
2022-10-11T17:30:15.091Z,18.38
2022-10-11T17:33:16.908Z,30.40
2022-10-11T17:36:28.071Z,24.70
2022-10-11T17:39:30.029Z,17.38
2022-10-11T17:42:31.962Z,23.77
2022-10-11T17:45:33.786Z,28.55
2022-10-11T17:48:36.961Z,25.40
2022-10-11T17:51:40.200Z,21.60
2022-10-11T17:54:42.139Z,30.50
2022-10-11T17:57:44.075Z,24.23
2022-10-11T18:00:46.065Z,23.52
2022-10-11T18:04:03.150Z,27.58
2022-10-11T18:07:05.095Z,22.83
2022-10-11T18:10:07.422Z,26.02
2022-10-11T18:13:14.548Z,22.05
2022-10-11T18:16:19.694Z,30.80
2022-10-11T18:19:21.704Z,25.10
2022-10-11T18:22:23.682Z,32.90
2022-10-11T18:25:25.914Z,30.52
2022-10-11T18:28:27.880Z,25.35
2022-10-11T18:31:33.678Z,32.10
2022-10-11T18:34:35.895Z,24.88
2022-10-11T18:37:37.814Z,46.85
2022-10-11T18:40:44.753Z,35.25
2022-10-11T18:43:54.620Z,35.50
2022-10-11T18:46:56.497Z,75.00
2022-10-11T18:49:58.360Z,47.78
2022-10-11T18:53:00.481Z,46.13
2022-10-11T18:56:04.268Z,51.92
2022-10-11T18:59:07.617Z,65.88
2022-10-11T19:02:12.008Z,68.78
2022-10-11T19:05:14.158Z,69.00
2022-10-11T19:08:16.068Z,70.35
2022-10-11T19:11:22.129Z,67.72
2022-10-11T19:14:26.867Z,78.38
2022-10-11T19:17:28.838Z,48.95
2022-10-11T19:20:30.775Z,52.97
2022-10-11T19:23:39.254Z,47.20
2022-10-11T19:26:42.129Z,50.70
2022-10-11T19:29:43.994Z,48.15
2022-10-11T19:32:45.862Z,49.30
2022-10-11T19:35:58.352Z,49.50
2022-10-11T19:39:00.214Z,83.70
2022-10-11T19:42:02.589Z,107.55
2022-10-11T19:45:05.046Z,103.90
2022-10-11T19:48:07.045Z,89.83
2022-10-11T19:51:12.402Z,83.43
2022-10-11T19:54:15.261Z,80.35
2022-10-11T19:57:17.118Z,105.57
2022-10-11T20:00:19.208Z,99.55
2022-10-11T20:03:21.072Z,95.00
2022-10-11T20:06:24.098Z,87.30
2022-10-11T20:09:30.645Z,79.57
2022-10-11T20:12:33.721Z,82.22
2022-10-11T20:15:40.239Z,67.53
2022-10-11T20:18:42.649Z,79.28
2022-10-11T20:21:45.295Z,86.20
2022-10-11T20:24:47.237Z,81.10
2022-10-11T20:27:49.107Z,80.03
2022-10-11T20:30:50.931Z,77.25
2022-10-11T20:33:59.052Z,77.38
2022-10-11T20:37:00.892Z,77.13
2022-10-11T20:40:05.931Z,83.05
2022-10-11T20:43:08.107Z,87.32
2022-10-11T20:46:15.672Z,78.38
2022-10-11T20:49:19.880Z,84.95
2022-10-11T20:52:22.141Z,72.07
2022-10-11T20:55:24.039Z,68.25
2022-10-11T20:58:25.994Z,81.65
2022-10-11T21:01:31.757Z,71.43
2022-10-11T21:04:34.276Z,72.15
2022-10-11T21:07:36.485Z,73.13
2022-10-11T21:10:39.603Z,68.60
2022-10-11T21:13:42.225Z,73.30
2022-10-11T21:16:44.179Z,71.38
2022-10-11T21:19:46.043Z,69.45
2022-10-11T21:22:47.967Z,92.75
2022-10-11T21:25:49.780Z,99.75
2022-10-11T21:28:52.392Z,88.15
2022-10-11T21:31:54.267Z,137.15
2022-10-11T21:34:56.136Z,118.45
2022-10-11T21:37:59.684Z,117.32
2022-10-11T21:41:05.396Z,87.32
2022-10-11T21:44:07.225Z,87.55
2022-10-11T21:47:10.036Z,103.07
2022-10-11T21:50:12.216Z,93.55
2022-10-11T21:53:14.123Z,104.03
2022-10-11T21:56:16.156Z,84.32
2022-10-11T21:59:18.062Z,101.13
2022-10-11T22:02:19.950Z,95.22
2022-10-11T22:05:21.828Z,97.82
2022-10-11T22:08:23.915Z,89.45
2022-10-11T22:11:25.813Z,90.43
2022-10-11T22:14:29.280Z,96.40
2022-10-11T22:17:31.164Z,97.85
2022-10-11T22:20:33.333Z,91.18
2022-10-11T22:23:35.587Z,78.13
2022-10-11T22:26:37.633Z,85.10
2022-10-11T22:29:39.499Z,88.55
2022-10-11T22:32:41.459Z,86.43
2022-10-11T22:35:43.372Z,73.00
2022-10-11T22:38:45.653Z,55.20
2022-10-11T22:41:47.510Z,58.50
2022-10-11T22:44:50.693Z,54.90
2022-10-11T22:47:52.564Z,57.90
2022-10-11T22:50:54.629Z,56.90
2022-10-11T22:53:56.505Z,58.53
2022-10-11T22:56:58.326Z,61.72
2022-10-11T23:00:00.198Z,66.97
2022-10-11T23:03:02.137Z,68.85
2022-10-11T23:06:04.232Z,53.00
2022-10-11T23:09:06.128Z,61.15
2022-10-11T23:12:08.164Z,66.68
2022-10-11T23:15:10.975Z,46.90
2022-10-11T23:18:13.132Z,39.78
2022-10-11T23:21:14.955Z,52.13
2022-10-11T23:24:16.873Z,45.13
2022-10-11T23:27:18.762Z,38.63
2022-10-11T23:30:20.641Z,37.15
2022-10-11T23:33:22.500Z,32.08
2022-10-11T23:36:25.861Z,29.13
2022-10-11T23:39:28.251Z,32.08
2022-10-11T23:42:30.178Z,33.47
2022-10-11T23:45:31.975Z,44.17
2022-10-11T23:48:33.832Z,45.08
2022-10-11T23:51:35.813Z,33.53
2022-10-11T23:54:37.713Z,37.17
2022-10-11T23:57:39.871Z,24.42
